Big Bear Station Historical Data
Daily Summary for May 9, 2017 Units:  English    Metric   Both
« Previous Day
Next Day »
Daily Weekly Monthly Yearly Custom
  High: Low: Average:
Temperature: 61.9 °F 39.4 °F 47.9 °F
Dew Point: 46.7 °F 26.9 °F 38.7 °F
Humidity: 94 % 47 % 72 %
Wind Speed: 7.3 mph 0.0 mph 2.6 mph
Wind Gust: -999.0 mph - -
Wind:- - SW
Pressure: 30.05 in 29.96 in -
Precipitation: 0.00 in    
Historical Graphs
 
 
Tabular Data for May 9, 2017
Time Temperature Dew Point Pressure Wind Wind Speed Wind Gust Humidity Rainfall Rate (Hourly)
00:06 39.7 °F 27.3 °F 30.00 in SSE 2.2 mph -999.0 mph 61 % 0 in
00:22 39.7 °F 26.9 °F 29.99 in SSW 2.2 mph -999.0 mph 60 % 0 in
00:37 39.4 °F 27.8 °F 29.99 in South 2.7 mph -999.0 mph 63 % 0 in
00:52 39.4 °F 27.8 °F 29.99 in SSE 2.7 mph -999.0 mph 63 % 0 in
01:07 39.7 °F 26.9 °F 29.98 in South 2.7 mph -999.0 mph 60 % 0 in
01:22 39.6 °F 27.3 °F 29.98 in SSE 1.7 mph -999.0 mph 61 % 0 in
01:38 39.6 °F 27.6 °F 29.98 in SSE 1.7 mph -999.0 mph 62 % 0 in
01:53 39.4 °F 28.2 °F 29.97 in SSE 1.7 mph -999.0 mph 64 % 0 in
02:09 41.9 °F 32.5 °F 29.96 in NNE 2.2 mph -999.0 mph 69 % 0 in
02:24 44.4 °F 34.9 °F 29.96 in North 3.7 mph -999.0 mph 69 % 0 in
02:39 44.8 °F 36.0 °F 29.96 in NNE 2.2 mph -999.0 mph 71 % 0 in
02:55 45.1 °F 34.8 °F 29.96 in NNW 4.2 mph -999.0 mph 67 % 0 in
03:10 45.7 °F 35.0 °F 29.97 in NNE 2.2 mph -999.0 mph 66 % 0 in
03:25 45.9 °F 35.2 °F 29.97 in NNE 2.7 mph -999.0 mph 66 % 0 in
03:41 45.9 °F 35.2 °F 29.97 in NW 3.2 mph -999.0 mph 66 % 0 in
03:56 44.8 °F 35.2 °F 29.96 in Calm   -999.0 mph 69 % 0 in
04:11 43.5 °F 35.1 °F 29.96 in Calm   -999.0 mph 72 % 0 in
04:26 42.4 °F 35.0 °F 29.96 in SSE 1.7 mph -999.0 mph 75 % 0 in
04:41 41.5 °F 34.8 °F 29.96 in SSE 1.7 mph -999.0 mph 77 % 0 in
04:57 41.0 °F 34.3 °F 29.96 in Calm   -999.0 mph 77 % 0 in
05:12 40.8 °F 34.5 °F 29.96 in South 2.2 mph -999.0 mph 78 % 0 in
05:27 40.5 °F 34.8 °F 29.97 in Calm   -999.0 mph 80 % 0 in
05:42 39.9 °F 34.5 °F 29.97 in Calm   -999.0 mph 81 % 0 in
05:57 39.7 °F 34.7 °F 29.97 in SSE 2.2 mph -999.0 mph 82 % 0 in
06:13 39.9 °F 34.9 °F 29.97 in SSE 2.2 mph -999.0 mph 82 % 0 in
06:28 39.9 °F 34.9 °F 29.98 in SSE 1.7 mph -999.0 mph 82 % 0 in
06:43 40.5 °F 35.4 °F 29.98 in SSE 2.2 mph -999.0 mph 82 % 0 in
06:59 40.6 °F 35.5 °F 29.98 in SSE 1.7 mph -999.0 mph 82 % 0 in
07:14 41.7 °F 36.9 °F 29.98 in SE 1.7 mph -999.0 mph 83 % 0 in
07:29 42.4 °F 37.3 °F 29.98 in Calm   -999.0 mph 82 % 0 in
07:44 44.2 °F 37.8 °F 29.99 in Calm   -999.0 mph 78 % 0 in
07:59 46.2 °F 38.4 °F 29.99 in NE 2.2 mph -999.0 mph 74 % 0 in
08:15 47.8 °F 38.1 °F 29.99 in East 2.2 mph -999.0 mph 69 % 0 in
08:30 49.5 °F 38.2 °F 29.99 in North 2.7 mph -999.0 mph 65 % 0 in
08:45 50.4 °F 39.1 °F 29.99 in NNW 2.7 mph -999.0 mph 65 % 0 in
09:00 51.8 °F 38.8 °F 29.99 in North 4.2 mph -999.0 mph 61 % 0 in
09:15 52.0 °F 38.1 °F 30.00 in NW 3.2 mph -999.0 mph 59 % 0 in
09:31 52.3 °F 38.0 °F 30.00 in North 4.2 mph -999.0 mph 58 % 0 in
09:46 53.6 °F 38.7 °F 30.01 in NNW 4.2 mph -999.0 mph 57 % 0 in
10:01 54.5 °F 39.1 °F 30.01 in NW 6.3 mph -999.0 mph 56 % 0 in
10:16 54.5 °F 38.7 °F 30.01 in WNW 5.8 mph -999.0 mph 55 % 0 in
10:31 54.9 °F 38.6 °F 30.01 in NE 3.2 mph -999.0 mph 54 % 0 in
10:47 55.9 °F 39.5 °F 30.01 in NW 5.3 mph -999.0 mph 54 % 0 in
11:02 57.2 °F 38.7 °F 30.01 in NNW 5.3 mph -999.0 mph 50 % 0 in
11:17 57.9 °F 38.9 °F 30.01 in NNE 2.7 mph -999.0 mph 49 % 0 in
11:33 59.5 °F 39.3 °F 30.01 in WNW 3.7 mph -999.0 mph 47 % 0 in
11:48 60.8 °F 41.0 °F 30.01 in NE 4.2 mph -999.0 mph 48 % 0 in
12:03 59.2 °F 39.0 °F 30.01 in NNE 3.2 mph -999.0 mph 47 % 0 in
12:18 57.9 °F 39.4 °F 30.01 in NNW 5.3 mph -999.0 mph 50 % 0 in
12:33 57.7 °F 37.6 °F 30.01 in NNE 4.2 mph -999.0 mph 47 % 0 in
12:49 61.9 °F 42.0 °F 30.01 in NW 4.7 mph -999.0 mph 48 % 0 in
13:04 58.6 °F 39.0 °F 30.01 in NNW 3.2 mph -999.0 mph 48 % 0 in
13:19 54.0 °F 43.7 °F 30.02 in East 1.7 mph -999.0 mph 68 % 0 in
13:35 61.2 °F 43.9 °F 30.01 in NNW 5.8 mph -999.0 mph 53 % 0 in
13:50 60.4 °F 42.7 °F 30.01 in NNW 6.8 mph -999.0 mph 52 % 0 in
14:05 59.5 °F 44.7 °F 30.02 in North 5.8 mph -999.0 mph 58 % 0 in
14:21 59.7 °F 46.7 °F 30.02 in NW 5.8 mph -999.0 mph 62 % 0 in
14:36 55.6 °F 45.6 °F 30.02 in ESE 4.7 mph -999.0 mph 69 % 0 in
14:51 54.1 °F 44.9 °F 30.01 in WNW 4.7 mph -999.0 mph 71 % 0 in
15:06 54.5 °F 45.7 °F 30.01 in NW 6.3 mph -999.0 mph 72 % 0 in
15:22 52.5 °F 44.8 °F 30.01 in WNW 5.8 mph -999.0 mph 75 % 0 in
15:37 55.2 °F 46.0 °F 30.01 in NW 4.7 mph -999.0 mph 71 % 0 in
15:52 54.1 °F 45.3 °F 30.01 in West 7.3 mph -999.0 mph 72 % 0 in
16:07 54.0 °F 44.8 °F 30.02 in ESE 2.7 mph -999.0 mph 71 % 0 in
16:22 52.7 °F 44.3 °F 30.02 in NE 3.7 mph -999.0 mph 73 % 0 in
16:38 51.4 °F 44.4 °F 30.02 in SSE 3.2 mph -999.0 mph 77 % 0 in
16:54 51.1 °F 43.8 °F 30.02 in NNW 7.3 mph -999.0 mph 76 % 0 in
17:09 50.0 °F 43.4 °F 30.02 in NW 3.7 mph -999.0 mph 78 % 0 in
17:24 49.3 °F 43.1 °F 30.03 in SSW 1.7 mph -999.0 mph 79 % 0 in
17:39 48.2 °F 43.0 °F 30.03 in NW 2.2 mph -999.0 mph 82 % 0 in
17:54 49.1 °F 43.5 °F 30.03 in NW 2.2 mph -999.0 mph 81 % 0 in
18:10 48.4 °F 43.2 °F 30.03 in South 1.7 mph -999.0 mph 82 % 0 in
18:25 47.3 °F 43.3 °F 30.03 in WSW 2.2 mph -999.0 mph 86 % 0 in
18:40 46.8 °F 43.4 °F 30.04 in West 1.1 mph -999.0 mph 88 % 0 in
18:55 46.8 °F 43.4 °F 30.02 in NW 4.2 mph -999.0 mph 88 % 0 in
19:10 45.9 °F 42.8 °F 30.03 in North 1.7 mph -999.0 mph 89 % 0 in
19:26 45.5 °F 42.4 °F 30.03 in Calm   -999.0 mph 89 % 0 in
19:41 45.9 °F 42.8 °F 30.03 in Calm   -999.0 mph 89 % 0 in
19:56 45.3 °F 42.2 °F 30.04 in South 1.1 mph -999.0 mph 89 % 0 in
20:11 44.8 °F 41.8 °F 30.04 in Calm   -999.0 mph 89 % 0 in
20:27 44.4 °F 41.7 °F 30.03 in Calm   -999.0 mph 90 % 0 in
20:42 43.3 °F 40.6 °F 30.04 in Calm   -999.0 mph 90 % 0 in
20:57 42.6 °F 40.7 °F 30.04 in SSE 2.2 mph -999.0 mph 93 % 0 in
21:12 42.4 °F 40.5 °F 30.04 in Calm   -999.0 mph 93 % 0 in
21:27 42.1 °F 40.2 °F 30.04 in South 2.7 mph -999.0 mph 93 % 0 in
21:43 42.6 °F 41.0 °F 30.05 in NW 2.7 mph -999.0 mph 94 % 0 in
21:58 42.3 °F 40.1 °F 30.05 in SSE 1.1 mph -999.0 mph 92 % 0 in
22:13 43.0 °F 40.0 °F 30.04 in Calm   -999.0 mph 89 % 0 in
22:28 46.6 °F 40.1 °F 30.04 in NNW 2.2 mph -999.0 mph 78 % 0 in
22:43 44.1 °F 39.0 °F 30.05 in South 1.1 mph -999.0 mph 82 % 0 in
22:59 43.7 °F 38.3 °F 30.05 in Calm   -999.0 mph 81 % 0 in
23:14 45.9 °F 39.4 °F 30.05 in Calm   -999.0 mph 78 % 0 in
23:29 45.5 °F 39.0 °F 30.05 in Calm   -999.0 mph 78 % 0 in
23:44 44.4 °F 38.6 °F 30.05 in Calm   -999.0 mph 80 % 0 in
23:59 44.1 °F 38.6 °F 30.05 in SSE 1.7 mph -999.0 mph 81 % 0 in
Big Bear CA Weather
Compliments of Weather Underground - 1.5 mb